createdAt,value
2023-03-19T00:02:16.751Z,3.53
2023-03-19T00:04:44.850Z,4.00
2023-03-19T00:07:11.531Z,5.20
2023-03-19T00:09:38.089Z,6.33
2023-03-19T00:12:05.563Z,5.47
2023-03-19T00:14:32.022Z,7.77
2023-03-19T00:16:58.547Z,5.70
2023-03-19T00:19:25.306Z,5.80
2023-03-19T00:21:52.195Z,3.77
2023-03-19T00:24:18.808Z,3.37
2023-03-19T00:26:45.315Z,3.57
2023-03-19T00:29:12.680Z,3.83
2023-03-19T00:31:40.602Z,3.60
2023-03-19T00:34:08.199Z,3.33
2023-03-19T00:36:35.743Z,3.43
2023-03-19T00:39:02.175Z,4.17
2023-03-19T00:41:28.949Z,4.60
2023-03-19T00:43:56.865Z,4.07
2023-03-19T00:46:24.600Z,3.63
2023-03-19T00:48:55.280Z,3.80
2023-03-19T00:51:23.449Z,3.50
2023-03-19T00:53:50.483Z,3.60
2023-03-19T00:56:18.331Z,2.97
2023-03-19T00:58:46.290Z,3.43
2023-03-19T01:01:15.648Z,3.60
2023-03-19T01:03:43.028Z,3.50
2023-03-19T01:06:09.592Z,3.40
2023-03-19T01:08:36.426Z,2.87
2023-03-19T01:11:12.359Z,2.80
2023-03-19T01:13:39.266Z,3.00
2023-03-19T01:16:06.566Z,3.53
2023-03-19T01:18:33.113Z,3.37
2023-03-19T01:21:00.696Z,3.80
2023-03-19T01:23:29.333Z,3.43
2023-03-19T01:25:56.934Z,3.83
2023-03-19T01:28:25.169Z,3.90
2023-03-19T01:30:52.335Z,3.47
2023-03-19T01:33:33.445Z,3.50
2023-03-19T01:36:05.295Z,3.20
2023-03-19T01:38:42.724Z,3.47
2023-03-19T01:41:14.952Z,3.77
2023-03-19T01:43:41.644Z,3.20
2023-03-19T01:46:34.671Z,3.90
2023-03-19T01:49:21.501Z,3.60
2023-03-19T01:51:54.121Z,3.50
2023-03-19T01:54:35.522Z,3.63
2023-03-19T01:57:22.592Z,3.20
2023-03-19T02:00:08.026Z,3.90
2023-03-19T02:02:47.053Z,3.57
2023-03-19T02:05:26.866Z,3.70
2023-03-19T02:08:06.481Z,3.50
2023-03-19T02:10:34.137Z,4.40
2023-03-19T02:13:00.981Z,3.53
2023-03-19T02:15:27.594Z,3.77
2023-03-19T02:17:54.515Z,3.80
2023-03-19T02:20:27.813Z,3.67
2023-03-19T02:23:20.471Z,3.90
2023-03-19T02:26:04.351Z,3.87
2023-03-19T02:28:33.442Z,4.93
2023-03-19T02:31:00.818Z,5.47
2023-03-19T02:33:29.130Z,5.20
2023-03-19T02:35:57.190Z,5.17
2023-03-19T02:38:26.995Z,5.27
2023-03-19T02:41:04.588Z,5.30
2023-03-19T02:43:35.951Z,3.97
2023-03-19T02:46:05.334Z,3.47
2023-03-19T02:48:32.400Z,2.57
2023-03-19T02:50:59.089Z,2.57
2023-03-19T02:53:26.106Z,2.40
2023-03-19T02:55:53.060Z,2.50
2023-03-19T02:58:19.949Z,2.60
2023-03-19T03:00:46.521Z,2.87
2023-03-19T03:03:13.112Z,2.70
2023-03-19T03:05:39.694Z,3.00
2023-03-19T03:08:06.973Z,4.37
2023-03-19T03:10:34.732Z,4.33
2023-03-19T03:13:02.476Z,5.33
2023-03-19T03:15:29.687Z,4.87
2023-03-19T03:17:56.801Z,3.70
2023-03-19T03:20:24.689Z,2.70
2023-03-19T03:22:52.562Z,2.70
2023-03-19T03:25:19.306Z,3.53
2023-03-19T03:27:47.082Z,4.00
2023-03-19T03:30:15.949Z,4.60
2023-03-19T03:32:42.952Z,4.40
2023-03-19T03:35:09.662Z,4.53
2023-03-19T03:37:37.261Z,4.10
2023-03-19T03:40:08.204Z,4.40
2023-03-19T03:42:37.334Z,4.17
2023-03-19T03:45:06.234Z,4.33
2023-03-19T03:47:32.785Z,3.80
2023-03-19T03:49:59.479Z,4.23
2023-03-19T03:52:31.118Z,3.57
2023-03-19T03:54:58.475Z,4.13
2023-03-19T03:57:26.073Z,3.90
2023-03-19T03:59:53.936Z,3.63
2023-03-19T04:02:20.751Z,4.40
2023-03-19T04:04:47.592Z,4.43
2023-03-19T04:07:14.720Z,4.10
2023-03-19T04:09:46.125Z,3.87
2023-03-19T04:12:13.973Z,4.00
2023-03-19T04:14:42.064Z,3.50
2023-03-19T04:17:09.405Z,2.40
2023-03-19T04:19:36.197Z,3.47
2023-03-19T04:22:03.511Z,3.83
2023-03-19T04:24:33.205Z,3.33
2023-03-19T04:27:00.198Z,2.93
2023-03-19T04:29:27.310Z,3.13
2023-03-19T04:31:54.113Z,3.37
2023-03-19T04:34:20.971Z,2.70
2023-03-19T04:36:47.601Z,2.90
2023-03-19T04:39:14.533Z,2.77
2023-03-19T04:41:41.432Z,2.40
2023-03-19T04:44:24.316Z,2.83
2023-03-19T04:46:50.960Z,2.83
2023-03-19T04:49:20.778Z,2.93
2023-03-19T04:51:48.322Z,2.53
2023-03-19T04:54:15.091Z,3.10
2023-03-19T04:56:41.575Z,3.00
2023-03-19T04:59:08.483Z,2.93
2023-03-19T05:01:34.997Z,3.40
2023-03-19T05:04:07.313Z,3.37
2023-03-19T05:06:37.647Z,3.57
2023-03-19T05:09:06.533Z,3.20
2023-03-19T05:11:33.738Z,3.10
2023-03-19T05:14:05.821Z,3.53
2023-03-19T05:16:54.204Z,3.57
2023-03-19T05:19:20.987Z,2.83
2023-03-19T05:21:47.510Z,2.93
2023-03-19T05:24:17.342Z,3.70
2023-03-19T05:26:44.590Z,3.17
2023-03-19T05:29:24.930Z,3.50
2023-03-19T05:32:05.592Z,3.37
2023-03-19T05:34:33.101Z,3.00
2023-03-19T05:36:59.791Z,2.90
2023-03-19T05:39:26.443Z,2.83
2023-03-19T05:41:54.087Z,2.60
2023-03-19T05:44:27.219Z,3.73
2023-03-19T05:47:14.241Z,4.20
2023-03-19T05:49:46.105Z,4.07
2023-03-19T05:52:12.888Z,4.33
2023-03-19T05:54:39.946Z,4.20
2023-03-19T05:57:16.247Z,3.10
2023-03-19T05:59:48.309Z,2.97
2023-03-19T06:02:36.001Z,2.87
2023-03-19T06:05:27.554Z,2.83
2023-03-19T06:07:58.475Z,3.10
2023-03-19T06:10:49.166Z,2.90
2023-03-19T06:13:16.674Z,2.63
2023-03-19T06:15:52.020Z,2.90
2023-03-19T06:18:25.571Z,2.90
2023-03-19T06:20:52.858Z,3.13
2023-03-19T06:23:19.609Z,3.00
2023-03-19T06:25:47.014Z,2.73
2023-03-19T06:28:15.594Z,3.03
2023-03-19T06:30:44.331Z,2.90
2023-03-19T06:33:43.000Z,2.90
2023-03-19T06:36:10.140Z,2.80
2023-03-19T06:38:36.782Z,2.87
2023-03-19T06:41:03.610Z,2.90
2023-03-19T06:43:31.095Z,2.73
2023-03-19T06:45:57.730Z,3.00
2023-03-19T06:48:24.226Z,2.97
2023-03-19T06:50:50.961Z,2.90
2023-03-19T06:53:17.402Z,3.00
2023-03-19T06:55:46.157Z,3.07
2023-03-19T06:58:12.744Z,3.10
2023-03-19T07:00:39.261Z,2.80
2023-03-19T07:03:05.673Z,3.23
2023-03-19T07:05:32.130Z,2.67
2023-03-19T07:07:58.754Z,3.03
2023-03-19T07:10:25.226Z,3.13
2023-03-19T07:12:51.685Z,2.70
2023-03-19T07:15:20.216Z,2.70
2023-03-19T07:17:47.477Z,2.30
2023-03-19T07:20:14.628Z,2.23
2023-03-19T07:22:41.112Z,2.20
2023-03-19T07:25:08.083Z,2.40
2023-03-19T07:27:35.644Z,2.77
2023-03-19T07:30:02.073Z,2.53
2023-03-19T07:32:28.466Z,2.10
2023-03-19T07:34:54.996Z,3.00
2023-03-19T07:37:22.600Z,2.83
2023-03-19T07:39:49.151Z,3.10
2023-03-19T07:42:15.645Z,3.50
2023-03-19T07:44:42.322Z,2.40
2023-03-19T07:47:22.590Z,2.70
2023-03-19T07:49:54.936Z,2.70
2023-03-19T07:52:21.386Z,2.13
2023-03-19T07:54:47.832Z,2.23
2023-03-19T07:57:16.477Z,2.63
2023-03-19T07:59:42.872Z,2.93
2023-03-19T08:02:11.993Z,2.83
2023-03-19T08:04:38.787Z,2.40
2023-03-19T08:07:05.369Z,3.50
2023-03-19T08:09:32.307Z,3.10
2023-03-19T08:11:58.763Z,3.10
2023-03-19T08:14:25.261Z,3.90
2023-03-19T08:16:51.862Z,4.43
2023-03-19T08:19:18.691Z,4.17
2023-03-19T08:21:45.361Z,3.90
2023-03-19T08:24:11.947Z,4.27
2023-03-19T08:26:38.442Z,3.83
2023-03-19T08:29:04.963Z,3.43
2023-03-19T08:31:31.450Z,3.90
2023-03-19T08:34:00.209Z,3.70
2023-03-19T08:36:27.552Z,2.70
2023-03-19T08:38:54.875Z,2.80
2023-03-19T08:41:21.993Z,3.17
2023-03-19T08:43:48.887Z,3.03
2023-03-19T08:46:16.363Z,4.97
2023-03-19T08:48:43.304Z,3.50
2023-03-19T08:51:10.790Z,3.90
2023-03-19T08:53:38.647Z,2.37
2023-03-19T08:56:07.726Z,2.80
2023-03-19T08:58:34.965Z,3.30
2023-03-19T09:01:07.157Z,2.50
2023-03-19T09:03:33.774Z,2.37
2023-03-19T09:06:01.958Z,3.20
2023-03-19T09:08:29.475Z,2.63
2023-03-19T09:10:56.078Z,2.70
2023-03-19T09:13:23.310Z,2.70
2023-03-19T09:15:50.607Z,2.77
2023-03-19T09:18:17.491Z,2.50
2023-03-19T09:20:43.911Z,2.80
2023-03-19T09:23:10.423Z,2.85
2023-03-19T09:25:36.953Z,2.42
2023-03-19T09:28:03.779Z,2.70
2023-03-19T09:30:30.304Z,2.75
2023-03-19T09:32:57.016Z,2.25
2023-03-19T09:35:23.977Z,2.50
2023-03-19T09:37:52.009Z,2.20
2023-03-19T09:40:42.728Z,2.45
2023-03-19T09:43:17.953Z,2.70
2023-03-19T09:45:46.696Z,2.20
2023-03-19T09:48:21.821Z,2.50
2023-03-19T09:50:50.024Z,2.40
2023-03-19T09:53:23.831Z,2.38
2023-03-19T09:55:52.715Z,2.03
2023-03-19T09:58:30.673Z,3.08
2023-03-19T10:00:58.489Z,2.65
2023-03-19T10:03:38.431Z,2.30
2023-03-19T10:06:18.529Z,2.60
2023-03-19T10:08:58.763Z,2.53
2023-03-19T10:12:01.296Z,2.40
2023-03-19T10:14:49.291Z,2.13
2023-03-19T10:17:35.477Z,2.40
2023-03-19T10:20:17.100Z,2.10
2023-03-19T10:23:00.533Z,2.65
2023-03-19T10:25:32.853Z,2.10
2023-03-19T10:28:07.809Z,2.38
2023-03-19T10:30:35.339Z,2.20
2023-03-19T10:33:20.715Z,2.30
2023-03-19T10:35:51.105Z,2.25
2023-03-19T10:38:24.224Z,2.25
2023-03-19T10:41:11.288Z,2.97
2023-03-19T10:43:40.129Z,2.15
2023-03-19T10:46:12.527Z,2.00
2023-03-19T10:48:44.268Z,2.00
2023-03-19T10:51:15.419Z,2.17
2023-03-19T10:53:42.396Z,2.22
2023-03-19T10:56:21.090Z,1.80
2023-03-19T10:59:06.147Z,2.17
2023-03-19T11:01:40.723Z,1.90
2023-03-19T11:04:21.946Z,2.10
2023-03-19T11:07:11.308Z,2.05
2023-03-19T11:09:40.553Z,2.13
2023-03-19T11:12:18.163Z,2.20
2023-03-19T11:14:48.151Z,1.77
2023-03-19T11:17:26.241Z,2.33
2023-03-19T11:19:55.547Z,2.20
2023-03-19T11:22:34.386Z,2.00
2023-03-19T11:25:03.716Z,2.58
2023-03-19T11:27:34.760Z,2.35
2023-03-19T11:30:19.812Z,2.15
2023-03-19T11:32:58.360Z,1.98
2023-03-19T11:35:28.756Z,2.20
2023-03-19T11:37:58.097Z,1.80
2023-03-19T11:40:34.341Z,1.70
2023-03-19T11:43:18.683Z,1.70
2023-03-19T11:45:54.903Z,1.90
2023-03-19T11:48:59.256Z,1.77
2023-03-19T11:51:52.219Z,1.90
2023-03-19T11:54:43.543Z,1.70
2023-03-19T11:57:38.163Z,1.77
2023-03-19T12:00:20.926Z,1.60
2023-03-19T12:03:06.657Z,1.42
2023-03-19T12:05:43.739Z,1.50
2023-03-19T12:08:25.770Z,1.85
2023-03-19T12:11:07.801Z,2.20
2023-03-19T12:13:39.099Z,1.67
2023-03-19T12:16:30.403Z,1.70
2023-03-19T12:19:35.762Z,1.83
2023-03-19T12:22:17.440Z,2.47
2023-03-19T12:25:26.263Z,2.40
2023-03-19T12:28:08.630Z,2.20
2023-03-19T12:30:48.620Z,2.50
2023-03-19T12:33:41.223Z,2.50
2023-03-19T12:36:12.254Z,2.57
2023-03-19T12:38:45.511Z,2.53
2023-03-19T12:41:19.492Z,2.60
2023-03-19T12:43:57.667Z,2.40
2023-03-19T12:46:45.725Z,3.45
2023-03-19T12:49:21.648Z,6.63
2023-03-19T12:51:53.636Z,10.00
2023-03-19T12:54:23.085Z,8.07
2023-03-19T12:56:59.017Z,4.00
2023-03-19T12:59:45.686Z,3.05
2023-03-19T13:02:38.432Z,3.00
2023-03-19T13:05:31.236Z,3.57
2023-03-19T13:08:35.374Z,4.60
2023-03-19T13:11:06.337Z,3.50
2023-03-19T13:14:13.141Z,5.03
2023-03-19T13:16:45.574Z,7.83
2023-03-19T13:19:29.652Z,3.87
2023-03-19T13:22:01.288Z,5.47
2023-03-19T13:24:31.398Z,4.77
2023-03-19T13:27:01.181Z,4.40
2023-03-19T13:29:32.225Z,4.20
2023-03-19T13:32:08.162Z,3.63
2023-03-19T13:34:36.904Z,3.37
2023-03-19T13:37:18.359Z,3.13
2023-03-19T13:39:48.395Z,5.70
2023-03-19T13:42:41.990Z,6.40
2023-03-19T13:45:20.385Z,3.10
2023-03-19T13:47:49.314Z,4.90
2023-03-19T13:50:18.569Z,3.63
2023-03-19T13:52:44.981Z,6.10
2023-03-19T13:55:54.622Z,2.60
2023-03-19T13:58:43.004Z,3.42
2023-03-19T14:01:12.153Z,10.87
2023-03-19T14:03:54.344Z,9.97
2023-03-19T14:06:33.410Z,2.57
2023-03-19T14:09:00.412Z,2.27
2023-03-19T14:11:33.638Z,7.03
2023-03-19T14:14:04.237Z,3.85
2023-03-19T14:16:35.303Z,2.53
2023-03-19T14:19:05.023Z,2.07
2023-03-19T14:21:54.707Z,2.90
2023-03-19T14:24:55.655Z,1.43
2023-03-19T14:27:33.078Z,2.20
2023-03-19T14:30:17.761Z,1.57
2023-03-19T14:32:47.973Z,3.00
2023-03-19T14:35:20.191Z,2.08
2023-03-19T14:37:54.156Z,1.60
2023-03-19T14:40:37.088Z,1.92
2023-03-19T14:43:12.826Z,1.60
2023-03-19T14:45:58.690Z,4.38
2023-03-19T14:48:58.182Z,2.80
2023-03-19T14:51:35.522Z,2.00
2023-03-19T14:54:21.583Z,1.38
2023-03-19T14:56:48.739Z,2.17
2023-03-19T14:59:15.930Z,1.80
2023-03-19T15:01:49.514Z,1.98
2023-03-19T15:04:17.877Z,1.60
2023-03-19T15:06:55.210Z,2.60
2023-03-19T15:09:31.037Z,1.35
2023-03-19T15:12:17.232Z,1.63
2023-03-19T15:15:22.255Z,1.85
2023-03-19T15:18:03.530Z,1.40
2023-03-19T15:20:45.466Z,1.27
2023-03-19T15:23:26.297Z,1.30
2023-03-19T15:25:58.075Z,3.83
2023-03-19T15:28:28.018Z,4.10
2023-03-19T15:31:26.793Z,1.70
2023-03-19T15:33:52.809Z,1.73
2023-03-19T15:36:29.930Z,1.60
2023-03-19T15:39:10.967Z,1.30
2023-03-19T15:41:43.079Z,1.97
2023-03-19T15:44:17.492Z,2.15
2023-03-19T15:46:45.913Z,1.00
2023-03-19T15:49:34.893Z,1.73
2023-03-19T15:52:06.780Z,1.40
2023-03-19T15:54:33.870Z,1.10
2023-03-19T15:57:00.332Z,0.90
2023-03-19T15:59:32.319Z,1.63
2023-03-19T16:02:01.594Z,1.40
2023-03-19T16:04:38.565Z,0.90
2023-03-19T16:07:46.758Z,1.00
2023-03-19T16:10:31.790Z,0.70
2023-03-19T16:13:04.116Z,0.87
2023-03-19T16:15:43.828Z,1.10
2023-03-19T16:18:16.534Z,1.03
2023-03-19T16:20:46.062Z,0.88
2023-03-19T16:23:18.598Z,0.70
2023-03-19T16:25:46.584Z,0.63
2023-03-19T16:28:20.012Z,0.50
2023-03-19T16:30:48.304Z,0.50
2023-03-19T16:33:15.316Z,0.40
2023-03-19T16:35:44.587Z,0.40
2023-03-19T16:38:18.161Z,0.40
2023-03-19T16:40:47.055Z,0.50
2023-03-19T16:43:19.276Z,0.40
2023-03-19T16:45:51.634Z,0.67
2023-03-19T16:48:18.107Z,0.70
2023-03-19T16:50:45.054Z,0.43
2023-03-19T16:53:23.420Z,0.30
2023-03-19T16:55:51.669Z,0.50
2023-03-19T16:58:24.446Z,0.37
2023-03-19T17:00:50.910Z,0.30
2023-03-19T17:03:18.480Z,0.40
2023-03-19T17:05:46.286Z,0.60
2023-03-19T17:08:13.496Z,0.40
2023-03-19T17:10:45.654Z,0.50
2023-03-19T17:13:20.387Z,0.50
2023-03-19T17:15:49.192Z,0.47
2023-03-19T17:18:24.400Z,0.43
2023-03-19T17:20:55.394Z,0.40
2023-03-19T17:23:26.908Z,0.30
2023-03-19T17:25:54.054Z,0.30
2023-03-19T17:28:20.614Z,0.60
2023-03-19T17:30:47.335Z,0.70
2023-03-19T17:33:27.632Z,0.50
2023-03-19T17:35:56.407Z,1.60
2023-03-19T17:38:33.997Z,1.20
2023-03-19T17:41:00.902Z,0.80
2023-03-19T17:43:27.348Z,0.87
2023-03-19T17:45:55.258Z,1.00
2023-03-19T17:48:25.794Z,0.70
2023-03-19T17:50:58.387Z,1.00
2023-03-19T17:53:24.946Z,1.30
2023-03-19T17:55:51.446Z,1.67
2023-03-19T17:58:21.303Z,1.50
2023-03-19T18:00:49.364Z,1.63
2023-03-19T18:03:19.119Z,1.77
2023-03-19T18:05:45.881Z,2.37
2023-03-19T18:08:17.647Z,2.70
2023-03-19T18:10:44.736Z,15.13
2023-03-19T18:13:11.919Z,13.57
2023-03-19T18:15:42.080Z,19.87
2023-03-19T18:18:16.058Z,13.03
2023-03-19T18:20:42.701Z,8.83
2023-03-19T18:23:12.016Z,5.57
2023-03-19T18:25:38.515Z,3.40
2023-03-19T18:28:05.418Z,5.83
2023-03-19T18:30:34.569Z,9.20
2023-03-19T18:33:04.568Z,3.70
2023-03-19T18:35:38.169Z,3.57
2023-03-19T18:38:13.007Z,3.67
2023-03-19T18:40:39.431Z,4.67
2023-03-19T18:43:05.870Z,6.40
2023-03-19T18:45:33.051Z,7.67
2023-03-19T18:48:00.400Z,8.70
2023-03-19T18:50:29.334Z,7.50
2023-03-19T18:52:56.962Z,6.13
2023-03-19T18:55:28.014Z,5.80
2023-03-19T18:57:57.900Z,4.57
2023-03-19T19:00:27.301Z,10.67
2023-03-19T19:02:55.068Z,10.17
2023-03-19T19:05:24.435Z,7.90
2023-03-19T19:07:51.545Z,8.07
2023-03-19T19:10:18.780Z,9.30
2023-03-19T19:12:47.822Z,9.40
2023-03-19T19:15:22.887Z,9.57
2023-03-19T19:17:50.154Z,10.97
2023-03-19T19:20:19.437Z,4.70
2023-03-19T19:22:46.328Z,5.17
2023-03-19T19:25:17.727Z,5.90
2023-03-19T19:27:46.733Z,5.77
2023-03-19T19:30:16.246Z,7.50
2023-03-19T19:32:43.576Z,5.10
2023-03-19T19:35:25.919Z,3.33
2023-03-19T19:37:52.561Z,15.87
2023-03-19T19:40:21.764Z,21.07
2023-03-19T19:42:52.292Z,11.40
2023-03-19T19:45:33.041Z,12.40
2023-03-19T19:48:00.259Z,9.83
2023-03-19T19:50:27.853Z,7.00
2023-03-19T19:52:55.647Z,7.77
2023-03-19T19:55:24.498Z,5.30
2023-03-19T19:57:54.407Z,5.77
2023-03-19T20:00:27.058Z,4.10
2023-03-19T20:02:54.395Z,5.80
2023-03-19T20:05:25.833Z,5.53
2023-03-19T20:07:55.059Z,9.37
2023-03-19T20:10:23.629Z,16.80
2023-03-19T20:12:52.448Z,2.40
2023-03-19T20:15:35.816Z,2.00
2023-03-19T20:18:03.909Z,11.10
2023-03-19T20:20:33.041Z,3.10
2023-03-19T20:23:02.133Z,3.37
2023-03-19T20:25:32.489Z,3.97
2023-03-19T20:28:01.309Z,4.27
2023-03-19T20:30:30.863Z,4.37
2023-03-19T20:32:58.427Z,4.53
2023-03-19T20:35:30.599Z,5.50
2023-03-19T20:37:58.467Z,5.57
2023-03-19T20:40:33.816Z,5.07
2023-03-19T20:43:01.516Z,4.93
2023-03-19T20:45:34.489Z,7.63
2023-03-19T20:48:02.163Z,6.13
2023-03-19T20:50:31.650Z,6.53
2023-03-19T20:53:01.268Z,6.70
2023-03-19T20:55:33.983Z,5.57
2023-03-19T20:58:06.510Z,5.70
2023-03-19T21:00:33.808Z,7.67
2023-03-19T21:03:01.715Z,6.33
2023-03-19T21:05:33.973Z,6.77
2023-03-19T21:08:01.129Z,7.53
2023-03-19T21:10:42.131Z,6.30
2023-03-19T21:13:13.410Z,6.47
2023-03-19T21:15:40.153Z,6.77
2023-03-19T21:18:07.334Z,6.97
2023-03-19T21:20:35.477Z,6.67
2023-03-19T21:23:28.140Z,6.67
2023-03-19T21:25:54.686Z,8.10
2023-03-19T21:28:28.233Z,6.93
2023-03-19T21:30:54.730Z,6.40
2023-03-19T21:33:24.394Z,4.87
2023-03-19T21:35:52.681Z,5.50
2023-03-19T21:38:19.595Z,7.30
2023-03-19T21:40:46.657Z,11.53
2023-03-19T21:43:23.423Z,11.10
2023-03-19T21:45:51.385Z,9.20
2023-03-19T21:48:28.881Z,10.23
2023-03-19T21:50:55.825Z,10.80
2023-03-19T21:53:22.496Z,10.60
2023-03-19T21:55:50.560Z,10.43
2023-03-19T21:58:20.456Z,8.70
2023-03-19T22:00:47.311Z,9.57
2023-03-19T22:03:17.925Z,19.17
2023-03-19T22:05:46.196Z,11.57
2023-03-19T22:08:15.525Z,13.83
2023-03-19T22:10:42.863Z,10.70
2023-03-19T22:13:19.378Z,11.07
2023-03-19T22:15:45.857Z,9.37
2023-03-19T22:18:15.659Z,9.83
2023-03-19T22:20:43.937Z,10.50
2023-03-19T22:23:11.299Z,48.43
2023-03-19T22:25:42.052Z,5.77
2023-03-19T22:28:22.232Z,8.83
2023-03-19T22:30:49.046Z,10.07
2023-03-19T22:33:21.422Z,5.43
2023-03-19T22:35:51.800Z,5.40
2023-03-19T22:38:20.234Z,5.00
2023-03-19T22:40:50.123Z,5.50
2023-03-19T22:43:29.891Z,5.23
2023-03-19T22:46:00.797Z,5.03
2023-03-19T22:48:27.378Z,4.80
2023-03-19T22:50:53.975Z,4.80
2023-03-19T22:53:26.006Z,4.47
2023-03-19T22:55:52.513Z,4.90
2023-03-19T22:58:19.210Z,4.40
2023-03-19T23:00:46.320Z,4.17
2023-03-19T23:03:19.766Z,4.47
2023-03-19T23:05:50.990Z,4.80
2023-03-19T23:08:18.064Z,4.60
2023-03-19T23:10:45.550Z,4.60
2023-03-19T23:13:13.768Z,5.20
2023-03-19T23:15:40.962Z,4.70
2023-03-19T23:18:34.709Z,4.90
2023-03-19T23:21:02.658Z,5.37
2023-03-19T23:23:30.414Z,4.50
2023-03-19T23:25:57.290Z,4.67
2023-03-19T23:28:30.432Z,5.20
2023-03-19T23:30:57.503Z,5.23
2023-03-19T23:33:26.874Z,5.50
2023-03-19T23:35:57.181Z,6.30
2023-03-19T23:38:23.635Z,6.10
2023-03-19T23:40:51.230Z,5.63
2023-03-19T23:43:22.555Z,5.60
2023-03-19T23:45:51.545Z,5.53
2023-03-19T23:48:26.583Z,4.70
2023-03-19T23:50:53.188Z,4.70
2023-03-19T23:53:28.205Z,5.17
2023-03-19T23:55:58.576Z,5.10
2023-03-19T23:58:32.411Z,5.67
